createdAt,value
2024-03-24T00:04:18.438Z,99001.81
2024-03-24T00:09:21.034Z,98998.77
2024-03-24T00:14:23.657Z,98993.02
2024-03-24T00:19:26.743Z,98997.11
2024-03-24T00:24:29.371Z,99006.14
2024-03-24T00:29:32.657Z,98995.58
2024-03-24T00:34:35.389Z,98997.77
2024-03-24T00:39:38.020Z,98996.39
2024-03-24T00:44:40.712Z,99001.73
2024-03-24T00:49:43.450Z,98994.62
2024-03-24T00:54:46.094Z,98994.70
2024-03-24T00:59:48.975Z,98995.12
2024-03-24T01:04:51.606Z,98988.62
2024-03-24T01:09:55.917Z,98986.72
2024-03-24T01:14:58.566Z,98979.40
2024-03-24T01:20:01.199Z,98971.06
2024-03-24T01:25:04.303Z,98966.30
2024-03-24T01:30:08.028Z,98962.11
2024-03-24T01:35:10.726Z,98965.14
2024-03-24T01:40:13.680Z,98965.63
2024-03-24T01:45:16.356Z,98957.65
2024-03-24T01:50:19.029Z,98962.00
2024-03-24T01:55:22.267Z,98959.14
2024-03-24T02:00:25.216Z,98958.84
2024-03-24T02:05:28.920Z,98952.77
2024-03-24T02:10:31.916Z,98955.08
2024-03-24T02:15:34.649Z,98955.03
2024-03-24T02:20:37.363Z,98949.09
2024-03-24T02:25:40.003Z,98937.82
2024-03-24T02:30:42.690Z,98934.38
2024-03-24T02:35:46.478Z,98932.16
2024-03-24T02:40:49.699Z,98930.34
2024-03-24T02:45:59.227Z,98920.76
2024-03-24T02:51:01.876Z,98918.88
2024-03-24T02:56:06.268Z,98911.25
2024-03-24T03:01:09.253Z,98912.92
2024-03-24T03:06:15.930Z,98919.77
2024-03-24T03:11:19.217Z,98928.16
2024-03-24T03:16:21.859Z,98926.45
2024-03-24T03:21:26.380Z,98920.77
2024-03-24T03:26:29.486Z,98927.51
2024-03-24T03:31:32.086Z,98936.73
2024-03-24T03:36:34.746Z,98933.04
2024-03-24T03:41:41.254Z,98926.49
2024-03-24T03:46:44.330Z,98928.67
2024-03-24T03:51:54.454Z,98931.45
2024-03-24T03:56:57.100Z,98937.77
2024-03-24T04:02:00.104Z,98939.26
2024-03-24T04:07:03.251Z,98939.16
2024-03-24T04:12:07.247Z,98939.45
2024-03-24T04:17:09.980Z,98931.94
2024-03-24T04:22:13.562Z,98933.64
2024-03-24T04:27:17.449Z,98924.98
2024-03-24T04:32:20.114Z,98925.83
2024-03-24T04:37:23.300Z,98923.69
2024-03-24T04:42:27.197Z,98922.49
2024-03-24T04:47:30.987Z,98917.52
2024-03-24T04:52:33.863Z,98920.29
2024-03-24T04:57:36.508Z,98919.98
2024-03-24T05:02:39.203Z,98913.91
2024-03-24T05:07:41.944Z,98913.12
2024-03-24T05:12:44.565Z,98915.61
2024-03-24T05:17:47.754Z,98918.96
2024-03-24T05:22:50.401Z,98914.23
2024-03-24T05:27:54.601Z,98917.52
2024-03-24T05:32:57.341Z,98920.16
2024-03-24T05:38:00.538Z,98920.45
2024-03-24T05:43:03.838Z,98930.27
2024-03-24T05:48:07.495Z,98939.17
2024-03-24T05:53:10.186Z,98935.38
2024-03-24T05:58:12.939Z,98932.96
2024-03-24T06:03:15.782Z,98927.46
2024-03-24T06:08:20.957Z,98924.20
2024-03-24T06:13:26.738Z,98920.60
2024-03-24T06:18:32.180Z,98922.02
2024-03-24T06:23:34.858Z,98917.22
2024-03-24T06:28:38.060Z,98914.83
2024-03-24T06:33:40.703Z,98917.21
2024-03-24T06:38:43.325Z,98925.39
2024-03-24T06:43:46.613Z,98928.81
2024-03-24T06:48:50.218Z,98934.55
2024-03-24T06:53:53.337Z,98932.17
2024-03-24T06:58:56.847Z,98933.48
2024-03-24T07:04:00.126Z,98936.61
2024-03-24T07:09:02.786Z,98940.58
2024-03-24T07:14:05.378Z,98940.63
2024-03-24T07:19:08.509Z,98937.10
2024-03-24T07:24:11.211Z,98940.23
2024-03-24T07:29:13.959Z,98940.52
2024-03-24T07:34:16.955Z,98946.20
2024-03-24T07:39:19.685Z,98945.19
2024-03-24T07:44:22.469Z,98941.12
2024-03-24T07:49:25.121Z,98940.95
2024-03-24T07:54:28.129Z,98940.37
2024-03-24T07:59:31.274Z,98932.18
2024-03-24T08:04:33.956Z,98930.15
2024-03-24T08:09:36.742Z,98924.44
2024-03-24T08:14:42.021Z,98922.38
2024-03-24T08:19:44.667Z,98918.09
2024-03-24T08:24:47.777Z,98920.64
2024-03-24T08:29:50.502Z,98921.69
2024-03-24T08:34:53.268Z,98920.08
2024-03-24T08:39:55.922Z,98923.70
2024-03-24T08:44:58.584Z,98916.75
2024-03-24T08:50:01.211Z,98918.02
2024-03-24T08:55:04.355Z,98921.12
2024-03-24T09:00:10.303Z,98924.16
2024-03-24T09:05:13.018Z,98923.16
2024-03-24T09:10:15.780Z,98917.30
2024-03-24T09:15:20.191Z,98914.14
2024-03-24T09:20:22.875Z,98908.81
2024-03-24T09:25:25.646Z,98905.80
2024-03-24T09:30:28.395Z,98910.44
2024-03-24T09:35:32.771Z,98912.81
2024-03-24T09:40:37.078Z,98913.98
2024-03-24T09:45:40.181Z,98910.14
2024-03-24T09:50:44.125Z,98910.71
2024-03-24T09:55:47.232Z,98913.80
2024-03-24T10:00:50.192Z,98905.93
2024-03-24T10:05:53.249Z,98899.67
2024-03-24T10:10:56.202Z,98902.00
2024-03-24T10:16:14.799Z,98902.84
2024-03-24T10:21:21.457Z,98897.29
2024-03-24T10:26:24.132Z,98903.73
2024-03-24T10:31:26.863Z,98898.46
2024-03-24T10:36:32.605Z,98900.32
2024-03-24T10:41:36.626Z,98899.38
2024-03-24T10:46:41.288Z,98898.41
2024-03-24T10:51:44.836Z,98904.08
2024-03-24T10:56:48.018Z,98899.84
2024-03-24T11:01:51.986Z,98908.13
2024-03-24T11:06:56.419Z,98911.20
2024-03-24T11:11:59.625Z,98917.43
2024-03-24T11:17:04.576Z,98911.21
2024-03-24T11:22:08.478Z,98907.88
2024-03-24T11:27:14.995Z,98906.67
2024-03-24T11:32:18.228Z,98901.89
2024-03-24T11:37:35.228Z,98898.42
2024-03-24T11:42:40.068Z,98895.64
2024-03-24T11:47:44.738Z,98891.65
2024-03-24T11:52:50.957Z,98894.94
2024-03-24T11:57:55.544Z,98889.37
2024-03-24T12:02:58.533Z,98890.60
2024-03-24T12:08:01.385Z,98886.90
2024-03-24T12:13:04.529Z,98879.56
2024-03-24T12:18:11.433Z,98876.10
2024-03-24T12:23:16.863Z,98862.73
2024-03-24T12:28:20.298Z,98859.70
2024-03-24T12:33:24.948Z,98866.64
2024-03-24T12:38:27.725Z,98859.09
2024-03-24T12:43:31.572Z,98861.67
2024-03-24T12:48:34.405Z,98863.48
2024-03-24T12:54:01.648Z,98858.08
2024-03-24T12:59:04.396Z,98856.94
2024-03-24T13:04:08.316Z,98852.17
2024-03-24T13:09:13.318Z,98843.41
2024-03-24T13:14:16.110Z,98836.63
2024-03-24T13:19:35.024Z,98840.14
2024-03-24T13:24:45.569Z,98838.98
2024-03-24T13:29:48.224Z,98835.48
2024-03-24T13:34:51.276Z,98826.20
2024-03-24T13:40:36.470Z,98824.76
2024-03-24T13:46:16.690Z,98821.59
2024-03-24T13:51:20.242Z,98816.36
2024-03-24T13:56:22.931Z,98814.71
2024-03-24T14:01:25.623Z,98816.04
2024-03-24T14:06:28.380Z,98817.10
2024-03-24T14:11:32.650Z,98814.16
2024-03-24T14:16:48.392Z,98818.52
2024-03-24T14:21:53.672Z,98817.34
2024-03-24T14:26:56.305Z,98815.26
2024-03-24T14:31:58.937Z,98818.55
2024-03-24T14:37:13.853Z,98833.11
2024-03-24T14:42:35.509Z,98840.49
2024-03-24T14:48:04.925Z,98825.84
2024-03-24T14:53:07.728Z,98814.29
2024-03-24T14:58:10.401Z,98810.63
2024-03-24T15:03:14.237Z,98809.89
2024-03-24T15:08:17.138Z,98818.14
2024-03-24T15:13:19.788Z,98819.77
2024-03-24T15:18:22.429Z,98846.13
2024-03-24T15:23:25.079Z,98841.66
2024-03-24T15:28:27.812Z,98834.30
2024-03-24T15:33:31.410Z,98829.40
2024-03-24T15:38:34.097Z,98821.05
2024-03-24T15:43:37.056Z,98809.43
2024-03-24T15:48:40.076Z,98808.35
2024-03-24T15:53:43.393Z,98800.91
2024-03-24T15:59:06.892Z,98804.19
2024-03-24T16:04:09.611Z,98805.52
2024-03-24T16:09:19.260Z,98801.57
2024-03-24T16:14:35.886Z,98802.33
2024-03-24T16:19:38.700Z,98801.59
2024-03-24T16:24:43.446Z,98804.00
2024-03-24T16:29:47.765Z,98801.47
2024-03-24T16:34:50.403Z,98802.80
2024-03-24T16:39:53.102Z,98808.98
2024-03-24T16:44:55.860Z,98815.44
2024-03-24T16:49:59.062Z,98822.02
2024-03-24T16:55:02.598Z,98815.10
2024-03-24T17:00:06.765Z,98815.63
2024-03-24T17:05:09.484Z,98819.41
2024-03-24T17:10:12.239Z,98827.50
2024-03-24T17:15:18.280Z,98831.32
2024-03-24T17:20:21.049Z,98828.72
2024-03-24T17:25:23.777Z,98832.84
2024-03-24T17:30:30.316Z,98832.73
2024-03-24T17:35:33.762Z,98834.25
2024-03-24T17:40:36.525Z,98838.27
2024-03-24T17:45:39.301Z,98841.52
2024-03-24T17:50:42.155Z,98844.12
2024-03-24T17:55:44.824Z,98850.05
2024-03-24T18:00:47.508Z,98851.42
2024-03-24T18:05:50.230Z,98845.81
2024-03-24T18:10:52.939Z,98849.86
2024-03-24T18:15:55.834Z,98850.58
2024-03-24T18:21:01.108Z,98852.62
2024-03-24T18:26:06.220Z,98847.53
2024-03-24T18:31:08.924Z,98850.16
2024-03-24T18:36:14.380Z,98846.16
2024-03-24T18:41:18.414Z,98845.19
2024-03-24T18:46:22.804Z,98852.07
2024-03-24T18:51:25.738Z,98850.00
2024-03-24T18:56:29.830Z,98843.02
2024-03-24T19:01:32.539Z,98841.58
2024-03-24T19:06:35.347Z,98842.88
2024-03-24T19:11:41.596Z,98837.03
2024-03-24T19:16:44.368Z,98837.45
2024-03-24T19:21:47.316Z,98837.17
2024-03-24T19:26:50.072Z,98837.86
2024-03-24T19:31:52.964Z,98841.35
2024-03-24T19:36:57.153Z,98838.20
2024-03-24T19:42:00.657Z,98838.11
2024-03-24T19:47:05.251Z,98846.12
2024-03-24T19:52:08.988Z,98845.51
2024-03-24T19:57:13.493Z,98845.37
2024-03-24T20:02:16.189Z,98840.02
2024-03-24T20:07:24.296Z,98841.35
2024-03-24T20:12:28.298Z,98845.93
2024-03-24T20:17:31.035Z,98846.27
2024-03-24T20:22:34.616Z,98853.55
2024-03-24T20:27:37.378Z,98854.44
2024-03-24T20:32:40.599Z,98845.98
2024-03-24T20:37:43.395Z,98845.16
2024-03-24T20:42:47.051Z,98841.23
2024-03-24T20:47:49.679Z,98837.27
2024-03-24T20:52:53.019Z,98826.81
2024-03-24T20:57:56.992Z,98820.38
2024-03-24T21:03:00.079Z,98813.70
2024-03-24T21:08:02.924Z,98812.48
2024-03-24T21:13:05.647Z,98812.02
2024-03-24T21:18:08.391Z,98816.71
2024-03-24T21:23:12.620Z,98819.81
2024-03-24T21:28:17.114Z,98822.42
2024-03-24T21:33:23.086Z,98821.95
2024-03-24T21:38:44.183Z,98819.33
2024-03-24T21:43:46.826Z,98818.13
2024-03-24T21:48:49.429Z,98823.33
2024-03-24T21:53:52.028Z,98817.90
2024-03-24T21:58:55.977Z,98809.91
2024-03-24T22:03:58.570Z,98807.59
2024-03-24T22:09:01.148Z,98805.53
2024-03-24T22:14:03.799Z,98806.04
2024-03-24T22:19:07.208Z,98799.98
2024-03-24T22:24:09.818Z,98800.19
2024-03-24T22:29:13.733Z,98800.56
2024-03-24T22:34:17.772Z,98795.99
2024-03-24T22:39:20.713Z,98792.31
2024-03-24T22:44:23.431Z,98789.11
2024-03-24T22:49:26.221Z,98790.88
2024-03-24T22:54:28.835Z,98787.48
2024-03-24T22:59:33.340Z,98786.31
2024-03-24T23:04:36.132Z,98784.70
2024-03-24T23:09:39.867Z,98784.31
2024-03-24T23:14:42.505Z,98782.14
2024-03-24T23:19:45.199Z,98777.89
2024-03-24T23:24:48.193Z,98775.75
2024-03-24T23:29:50.993Z,98780.45
2024-03-24T23:34:53.631Z,98777.23
2024-03-24T23:39:57.264Z,98778.98
2024-03-24T23:45:00.428Z,98775.77
2024-03-24T23:50:03.444Z,98774.20
2024-03-24T23:55:08.276Z,98780.84
